Time;durP1;ratioP1;P1;durP2;ratioP2;P2;SDS_P1;SDS_P2;PMS_P1;PMS_P2;Temp;Humidity;BMP_temperature;BMP_pressure;BME280_temperature;BME280_humidity;BME280_pressure;Samples;Min_cycle;Max_cycle;Signal;HPM_P1;HPM_P2
2021/10/12 00:01:20;;;;;;;6.50;1.90;;;11.20;99.90;;;;;;5050830;28;20412;-78
2021/10/12 00:03:46;;;;;;;8.07;2.10;;;11.40;99.90;;;;;;5050969;28;20086;-77
2021/10/12 00:06:11;;;;;;;6.25;1.77;;;11.40;99.90;;;;;;5052313;28;20056;-78
2021/10/12 00:08:38;;;;;;;9.18;2.15;;;11.30;99.90;;;;;;5050516;28;20040;-77
2021/10/12 00:11:04;;;;;;;9.35;2.47;;;10.90;99.90;;;;;;5053432;28;20028;-77
2021/10/12 00:13:31;;;;;;;8.80;2.22;;;10.20;99.90;;;;;;5055970;28;20032;-77
2021/10/12 00:15:57;;;;;;;8.40;2.55;;;10.10;99.90;;;;;;5054256;28;20174;-77
2021/10/12 00:18:23;;;;;;;5.20;1.95;;;9.90;99.90;;;;;;5055619;28;20053;-76
2021/10/12 00:20:49;;;;;;;6.22;2.10;;;10.00;99.90;;;;;;5055536;28;20028;-77
2021/10/12 00:23:14;;;;;;;6.15;1.92;;;10.50;99.90;;;;;;5055752;28;20025;-77
2021/10/12 00:25:40;;;;;;;4.55;1.70;;;10.80;99.90;;;;;;5055710;28;20056;-77
2021/10/12 00:28:06;;;;;;;5.43;1.58;;;10.90;99.90;;;;;;5055347;28;20482;-77
2021/10/12 00:30:32;;;;;;;10.23;2.40;;;11.00;99.90;;;;;;5055332;28;20045;-77
2021/10/12 00:32:58;;;;;;;5.32;1.95;;;11.10;99.90;;;;;;5055379;28;20075;-77
2021/10/12 00:35:24;;;;;;;6.07;1.90;;;11.00;99.90;;;;;;5054316;28;20041;-78
2021/10/12 00:37:49;;;;;;;9.05;2.13;;;11.00;99.90;;;;;;5055229;28;20092;-77
2021/10/12 00:40:15;;;;;;;5.75;1.90;;;10.90;99.90;;;;;;5055478;28;20025;-77
2021/10/12 00:42:41;;;;;;;6.28;1.90;;;10.70;99.90;;;;;;5054204;28;20033;-77
2021/10/12 00:45:10;;;;;;;8.57;2.22;;;10.50;99.90;;;;;;5054988;28;20378;-77
2021/10/12 00:47:36;;;;;;;9.43;2.30;;;10.40;99.90;;;;;;5053916;28;20115;-77
2021/10/12 00:50:04;;;;;;;10.13;2.55;;;10.20;99.90;;;;;;5055111;28;20052;-77
2021/10/12 00:52:30;;;;;;;9.63;2.05;;;10.30;99.90;;;;;;5055319;28;20029;-77
2021/10/12 00:54:56;;;;;;;7.05;2.30;;;10.60;99.90;;;;;;5055180;28;20040;-77
2021/10/12 00:57:22;;;;;;;8.40;2.45;;;10.60;99.90;;;;;;5054925;28;20127;-77
2021/10/12 00:59:48;;;;;;;8.63;2.40;;;10.30;99.90;;;;;;5054552;28;20548;-77
2021/10/12 01:02:14;;;;;;;7.90;2.22;;;10.60;99.90;;;;;;5054381;28;20036;-77
2021/10/12 01:04:40;;;;;;;9.85;2.70;;;10.80;99.90;;;;;;5053804;28;20108;-77
2021/10/12 01:07:05;;;;;;;13.68;2.58;;;10.60;99.90;;;;;;5054911;28;20037;-77
2021/10/12 01:09:32;;;;;;;8.20;2.50;;;10.30;99.90;;;;;;5053049;28;20032;-77
2021/10/12 01:11:59;;;;;;;8.77;2.17;;;10.10;99.90;;;;;;5054911;28;20025;-77
2021/10/12 01:14:26;;;;;;;5.68;1.70;;;9.90;99.90;;;;;;5054774;28;20025;-77
2021/10/12 01:16:52;;;;;;;6.38;1.75;;;9.60;99.90;;;;;;5054789;28;20052;-77
2021/10/12 01:19:18;;;;;;;6.28;1.80;;;9.40;99.90;;;;;;5054266;28;20068;-77
2021/10/12 01:21:45;;;;;;;;;;;9.50;99.90;;;;;;5053626;28;20032;-77
2021/10/12 01:24:12;;;;;;;9.23;2.40;;;9.70;99.90;;;;;;5053943;28;20013;-77
2021/10/12 01:26:41;;;;;;;7.47;2.30;;;9.80;99.90;;;;;;5054572;28;20036;-77
2021/10/12 01:29:11;;;;;;;10.32;2.38;;;10.00;99.90;;;;;;5052644;28;20500;-77
2021/10/12 01:31:38;;;;;;;8.75;2.50;;;10.00;99.90;;;;;;5053956;28;20045;-77
2021/10/12 01:34:15;;;;;;;7.40;2.50;;;10.10;99.90;;;;;;5053162;28;20048;-77
2021/10/12 01:36:42;;;;;;;7.72;2.45;;;10.10;99.90;;;;;;5053146;28;20371;-77
2021/10/12 01:39:08;;;;;;;9.85;2.30;;;10.00;99.90;;;;;;5053788;28;20035;-77
2021/10/12 01:41:34;;;;;;;;;;;10.00;99.90;;;;;;5054668;28;20029;-77
2021/10/12 01:44:00;;;;;;;8.85;2.05;;;10.20;99.90;;;;;;5054121;28;20446;-77
2021/10/12 01:46:25;;;;;;;5.00;1.63;;;10.40;99.90;;;;;;5052579;28;20021;-77
2021/10/12 01:48:53;;;;;;;6.25;1.52;;;10.40;99.90;;;;;;5053822;28;20079;-77
2021/10/12 01:51:19;;;;;;;7.32;1.75;;;10.30;99.90;;;;;;5054072;28;20056;-77
2021/10/12 01:53:45;;;;;;;7.82;2.17;;;10.20;99.90;;;;;;5054121;28;20384;-76
2021/10/12 01:56:11;;;;;;;7.20;1.77;;;9.90;99.90;;;;;;5052505;28;20408;-77
2021/10/12 01:58:37;;;;;;;5.22;1.50;;;9.70;99.90;;;;;;5026916;28;20052;-77
2021/10/12 02:01:03;;;;;;;8.05;1.85;;;9.70;99.90;;;;;;5051797;28;20033;-78
2021/10/12 02:03:29;;;;;;;;;;;10.00;99.90;;;;;;5052813;28;20028;-77
2021/10/12 02:05:55;;;;;;;8.95;2.08;;;10.00;99.90;;;;;;5053596;28;19957;-77
2021/10/12 02:08:20;;;;;;;7.18;1.70;;;9.80;99.90;;;;;;5053520;28;20081;-77
2021/10/12 02:10:46;;;;;;;7.97;1.80;;;9.70;99.90;;;;;;5052370;28;20025;-77
2021/10/12 02:13:12;;;;;;;8.70;1.92;;;9.80;99.90;;;;;;5052291;28;20036;-77
2021/10/12 02:15:38;;;;;;;7.97;2.03;;;9.90;99.90;;;;;;5053591;28;20099;-78
2021/10/12 02:18:04;;;;;;;10.50;2.50;;;9.70;99.90;;;;;;5053484;28;20021;-77
2021/10/12 02:20:30;;;;;;;9.27;2.30;;;9.30;99.90;;;;;;5053213;28;20484;-77
2021/10/12 02:22:56;;;;;;;4.72;1.70;;;9.10;99.90;;;;;;5053467;28;20033;-77
2021/10/12 02:25:21;;;;;;;8.65;2.47;;;9.40;99.90;;;;;;5052208;28;20120;-77
2021/10/12 02:27:47;;;;;;;14.45;2.40;;;9.60;99.90;;;;;;5053472;28;20047;-78
2021/10/12 02:30:13;;;;;;;8.93;2.00;;;9.80;99.90;;;;;;5052795;28;20033;-77
2021/10/12 02:32:39;;;;;;;8.30;2.38;;;9.70;99.90;;;;;;5053167;28;20036;-78
2021/10/12 02:35:06;;;;;;;18.23;3.90;;;9.70;99.90;;;;;;5053254;28;20031;-77
2021/10/12 02:37:32;;;;;;;10.27;3.25;;;9.50;99.90;;;;;;5051847;28;20101;-77
2021/10/12 02:39:57;;;;;;;14.00;3.47;;;9.30;99.90;;;;;;5053040;28;20025;-77
2021/10/12 02:42:23;;;;;;;13.18;3.22;;;9.20;99.90;;;;;;5051605;28;20044;-77
2021/10/12 02:44:49;;;;;;;9.98;3.30;;;9.30;99.90;;;;;;5053086;28;20025;-77
2021/10/12 02:47:15;;;;;;;12.18;3.58;;;9.30;99.90;;;;;;5053163;28;20374;-77
2021/10/12 02:49:41;;;;;;;9.90;3.00;;;9.30;99.90;;;;;;5052988;28;20599;-77
2021/10/12 02:52:06;;;;;;;10.63;3.03;;;9.30;99.90;;;;;;5052566;28;20040;-77
2021/10/12 02:54:33;;;;;;;10.50;3.15;;;9.80;99.90;;;;;;5051231;28;20131;-77
2021/10/12 02:56:58;;;;;;;;;;;9.90;99.90;;;;;;5053389;28;20060;-77
2021/10/12 02:59:24;;;;;;;11.55;2.75;;;9.90;99.90;;;;;;5052970;28;20352;-77
2021/10/12 03:01:50;;;;;;;9.52;2.40;;;9.80;99.90;;;;;;5052410;28;20032;-76
2021/10/12 03:04:15;;;;;;;7.60;2.50;;;9.80;99.90;;;;;;5052710;28;20044;-77
2021/10/12 03:06:42;;;;;;;7.47;2.30;;;9.80;99.90;;;;;;5051271;28;20029;-77
2021/10/12 03:09:08;;;;;;;10.75;2.50;;;9.80;99.90;;;;;;5052803;28;20060;-77
2021/10/12 03:11:33;;;;;;;10.65;2.42;;;9.70;99.90;;;;;;5051160;28;20071;-77
2021/10/12 03:14:00;;;;;;;9.02;2.97;;;9.60;99.90;;;;;;5052802;28;20033;-77
2021/10/12 03:16:25;;;;;;;;;;;9.40;99.90;;;;;;5053324;28;20032;-77
2021/10/12 03:18:51;;;;;;;8.32;2.42;;;9.20;99.90;;;;;;5052629;28;19905;-77
2021/10/12 03:21:18;;;;;;;11.05;2.78;;;9.30;99.90;;;;;;5052562;28;20048;-77
2021/10/12 03:23:44;;;;;;;12.32;2.78;;;9.20;99.90;;;;;;5052699;28;20385;-76
2021/10/12 03:26:10;;;;;;;11.23;3.10;;;8.60;99.90;;;;;;5051427;28;20236;-77
2021/10/12 03:28:35;;;;;;;19.20;3.33;;;8.20;99.90;;;;;;5051338;28;20033;-77
2021/10/12 03:31:01;;;;;;;17.25;3.80;;;8.10;99.90;;;;;;5052219;28;20047;-77
2021/10/12 03:33:27;;;;;;;20.98;5.30;;;8.30;99.90;;;;;;5051084;28;20036;-77
2021/10/12 03:35:57;;;;;;;92.68;4.63;;;8.30;99.90;;;;;;5052693;28;20025;-77
2021/10/12 03:38:24;;;;;;;28.77;4.22;;;8.20;99.90;;;;;;5051071;28;20490;-77
2021/10/12 03:40:50;;;;;;;16.55;3.40;;;8.10;99.90;;;;;;5052246;28;20109;-76
2021/10/12 03:43:17;;;;;;;16.42;3.80;;;8.00;99.90;;;;;;5052532;28;20021;-77
2021/10/12 03:45:43;;;;;;;7.13;3.20;;;8.10;99.90;;;;;;5053202;28;20104;-76
2021/10/12 03:48:09;;;;;;;8.73;3.03;;;8.30;99.90;;;;;;5056320;28;20104;-76
2021/10/12 03:50:34;;;;;;;8.80;3.00;;;8.60;99.90;;;;;;5055993;28;20033;-77
2021/10/12 03:53:00;;;;;;;11.50;3.45;;;8.90;99.90;;;;;;5056201;28;20029;-77
2021/10/12 03:55:26;;;;;;;10.80;3.47;;;9.00;99.90;;;;;;5056385;28;20399;-77
2021/10/12 03:57:52;;;;;;;;;;;8.90;99.90;;;;;;5055404;28;20025;-77
2021/10/12 04:00:18;;;;;;;12.15;3.50;;;8.90;99.90;;;;;;5055891;28;20421;-77
2021/10/12 04:02:44;;;;;;;8.85;3.58;;;9.00;99.90;;;;;;5056006;28;20048;-76
2021/10/12 04:05:10;;;;;;;9.20;3.50;;;8.80;99.90;;;;;;5054778;28;20532;-77
2021/10/12 04:07:36;;;;;;;7.97;3.05;;;8.70;99.90;;;;;;5055938;28;20037;-77
2021/10/12 04:10:03;;;;;;;11.38;3.53;;;8.80;99.90;;;;;;5055977;28;20029;-77
2021/10/12 04:12:29;;;;;;;11.15;3.10;;;9.10;99.90;;;;;;5055509;28;20032;-76
2021/10/12 04:14:54;;;;;;;11.98;2.70;;;9.10;99.90;;;;;;5055997;28;20481;-77
2021/10/12 04:17:20;;;;;;;8.23;2.58;;;9.40;99.90;;;;;;5054490;28;20036;-77
2021/10/12 04:19:46;;;;;;;8.82;2.53;;;9.60;99.90;;;;;;5055797;28;20100;-77
2021/10/12 04:22:12;;;;;;;8.60;2.33;;;9.50;99.90;;;;;;5054126;28;20037;-77
2021/10/12 04:24:38;;;;;;;12.00;2.78;;;9.40;99.90;;;;;;5054366;28;20397;-77
2021/10/12 04:27:04;;;;;;;16.30;3.22;;;9.50;99.90;;;;;;5055777;28;20033;-77
2021/10/12 04:29:31;;;;;;;19.38;3.58;;;9.50;99.90;;;;;;5055419;28;20165;-76
2021/10/12 04:31:58;;;;;;;18.73;4.90;;;9.60;99.90;;;;;;5053794;28;20414;-77
2021/10/12 04:34:24;;;;;;;15.40;3.83;;;9.40;99.90;;;;;;5055629;28;20075;-77
2021/10/12 04:36:50;;;;;;;18.42;4.22;;;9.40;99.90;;;;;;5055334;28;20423;-77
2021/10/12 04:39:16;;;;;;;12.90;3.83;;;9.40;99.90;;;;;;5055499;28;20048;-77
2021/10/12 04:41:42;;;;;;;11.05;3.85;;;9.30;99.90;;;;;;5054976;28;20425;-77
2021/10/12 04:44:09;;;;;;;11.43;3.35;;;9.40;99.90;;;;;;5055459;28;20040;-77
2021/10/12 04:46:39;;;;;;;12.50;3.28;;;9.30;99.90;;;;;;5055239;28;20066;-77
2021/10/12 04:49:05;;;;;;;9.95;2.72;;;9.20;99.90;;;;;;5054919;28;20048;-77
2021/10/12 04:51:31;;;;;;;9.43;2.90;;;9.10;99.90;;;;;;5054858;28;20108;-77
2021/10/12 04:53:57;;;;;;;10.30;3.00;;;9.10;99.90;;;;;;5054947;28;20100;-77
2021/10/12 04:56:22;;;;;;;10.23;4.35;;;8.90;99.90;;;;;;5055132;28;20028;-77
2021/10/12 04:58:48;;;;;;;8.20;3.08;;;9.00;99.90;;;;;;5053881;28;20492;-77
2021/10/12 05:01:14;;;;;;;8.27;3.13;;;9.00;99.90;;;;;;5053509;28;20511;-78
2021/10/12 05:03:39;;;;;;;8.77;3.20;;;8.90;99.90;;;;;;5054734;28;20021;-77
2021/10/12 05:06:05;;;;;;;5.13;2.42;;;8.80;99.90;;;;;;5054823;28;20052;-77
2021/10/12 05:08:31;;;;;;;6.30;2.63;;;8.90;99.90;;;;;;5054849;28;20481;-77
2021/10/12 05:10:57;;;;;;;9.70;2.90;;;9.00;99.90;;;;;;5053265;28;20507;-76
2021/10/12 05:13:23;;;;;;;20.13;3.97;;;9.10;99.90;;;;;;5054914;28;20024;-77
2021/10/12 05:15:49;;;;;;;9.32;3.05;;;9.30;99.90;;;;;;5054778;28;20029;-78
2021/10/12 05:18:24;;;;;;;10.98;3.60;;;9.50;99.90;;;;;;5054479;28;20481;-77
2021/10/12 05:20:50;;;;;;;17.17;4.00;;;9.50;99.90;;;;;;5054450;28;20024;-76
2021/10/12 05:23:16;;;;;;;14.95;3.42;;;9.40;99.90;;;;;;5053441;28;20024;-77
2021/10/12 05:25:46;;;;;;;13.15;3.22;;;9.30;99.90;;;;;;5054563;28;20021;-77
2021/10/12 05:28:12;;;;;;;14.25;4.10;;;9.20;99.90;;;;;;5053009;28;20025;-77
2021/10/12 05:30:41;;;;;;;12.38;3.13;;;9.30;99.90;;;;;;5052421;28;20378;-78
2021/10/12 05:33:11;;;;;;;10.82;3.50;;;9.10;99.90;;;;;;5054337;28;20025;-77
2021/10/12 05:35:36;;;;;;;17.38;4.53;;;9.20;99.90;;;;;;5054410;28;20083;-78
2021/10/12 05:38:02;;;;;;;25.90;5.03;;;9.10;99.90;;;;;;5054283;28;20029;-78
2021/10/12 05:40:28;;;;;;;11.40;3.92;;;9.10;99.90;;;;;;5053067;28;20033;-77
2021/10/12 05:42:54;;;;;;;10.77;4.00;;;9.00;99.90;;;;;;5052865;28;20021;-77
2021/10/12 05:45:20;;;;;;;11.32;3.72;;;9.00;99.90;;;;;;5054312;28;20029;-78
2021/10/12 05:47:46;;;;;;;11.68;3.53;;;9.00;99.90;;;;;;5054107;28;20029;-76
2021/10/12 05:50:12;;;;;;;13.80;3.50;;;9.00;99.90;;;;;;5053988;28;20366;-77
2021/10/12 05:52:39;;;;;;;9.18;3.35;;;9.10;99.90;;;;;;5053667;28;20017;-76
2021/10/12 05:55:12;;;;;;;6.95;3.00;;;9.30;99.90;;;;;;5052750;28;20098;-77
2021/10/12 05:58:05;;;;;;;9.85;3.25;;;9.40;99.90;;;;;;5052444;28;20110;-77
2021/10/12 06:00:26;;;;;;;9.30;3.53;;;9.50;99.90;;;;;;5053763;28;20029;-77
2021/10/12 06:02:52;;;;;;;37.30;5.47;;;9.40;99.90;;;;;;5053292;28;20017;-76
2021/10/12 06:05:18;;;;;;;15.75;3.97;;;9.30;99.90;;;;;;5053705;28;20386;-77
2021/10/12 06:07:45;;;;;;;13.32;3.63;;;9.30;99.90;;;;;;5053799;28;20058;-77
2021/10/12 06:10:11;;;;;;;22.27;4.13;;;9.10;99.90;;;;;;5051889;28;20063;-76
2021/10/12 06:12:36;;;;;;;12.50;3.20;;;8.90;99.90;;;;;;5053298;28;20041;-77
2021/10/12 06:15:03;;;;;;;6.72;2.70;;;9.00;99.90;;;;;;5053715;28;20057;-78
2021/10/12 06:17:29;;;;;;;18.60;3.00;;;9.20;99.90;;;;;;5053516;28;20544;-77
2021/10/12 06:19:54;;;;;;;14.25;3.08;;;9.30;99.90;;;;;;5053557;28;20103;-77
2021/10/12 06:22:20;;;;;;;13.80;3.42;;;9.20;99.90;;;;;;5053154;28;20046;-76
2021/10/12 06:24:46;;;;;;;10.80;3.20;;;9.30;99.90;;;;;;5053572;28;20025;-77
2021/10/12 06:27:12;;;;;;;6.07;2.30;;;9.30;99.90;;;;;;5053457;28;20029;-77
2021/10/12 06:29:37;;;;;;;7.30;2.83;;;9.20;99.90;;;;;;5053297;28;20025;-77
2021/10/12 06:32:03;;;;;;;7.93;3.05;;;9.10;99.90;;;;;;5052762;28;20045;-76
2021/10/12 06:34:29;;;;;;;38.88;6.20;;;9.10;99.90;;;;;;5052113;28;20036;-77
2021/10/12 06:36:55;;;;;;;8.38;2.85;;;8.90;99.90;;;;;;5053388;28;20104;-77
2021/10/12 06:39:20;;;;;;;5.85;2.53;;;8.90;99.90;;;;;;5053168;28;20090;-77
2021/10/12 06:41:46;;;;;;;5.95;2.22;;;9.20;99.90;;;;;;5053037;28;20021;-77
2021/10/12 06:44:12;;;;;;;9.80;2.53;;;9.40;99.90;;;;;;5053046;28;20037;-77
2021/10/12 06:46:38;;;;;;;8.73;2.70;;;9.40;99.90;;;;;;5053219;28;20032;-78
2021/10/12 06:49:03;;;;;;;7.32;2.45;;;9.50;99.90;;;;;;5052711;28;20033;-77
2021/10/12 06:51:29;;;;;;;7.75;2.67;;;9.60;99.90;;;;;;5052751;28;20021;-77
2021/10/12 06:53:55;;;;;;;7.70;2.78;;;9.60;99.90;;;;;;5052836;28;20016;-77
2021/10/12 06:56:20;;;;;;;9.23;2.67;;;9.70;99.90;;;;;;5052948;28;20047;-77
2021/10/12 06:58:46;;;;;;;9.10;3.15;;;9.60;99.90;;;;;;5051765;28;20116;-77
2021/10/12 07:01:12;;;;;;;9.95;2.65;;;9.70;99.90;;;;;;5052660;28;20021;-77
2021/10/12 07:03:38;;;;;;;13.00;2.50;;;9.80;99.90;;;;;;5051481;28;20486;-77
2021/10/12 07:06:03;;;;;;;7.60;2.70;;;10.10;99.90;;;;;;5052530;28;20032;-78
2021/10/12 07:08:29;;;;;;;10.80;2.50;;;10.30;99.90;;;;;;5051584;28;20048;-76
2021/10/12 07:10:55;;;;;;;12.02;2.42;;;10.50;99.90;;;;;;5052779;28;20041;-77
2021/10/12 07:13:29;;;;;;;13.45;2.50;;;10.70;99.90;;;;;;5051487;28;20045;-77
2021/10/12 07:15:56;;;;;;;10.57;2.22;;;10.90;99.90;;;;;;5053206;28;20017;-77
2021/10/12 07:18:25;;;;;;;12.00;2.90;;;11.10;99.90;;;;;;5053155;28;20063;-77
2021/10/12 07:20:51;;;;;;;7.30;2.30;;;11.50;99.90;;;;;;5052937;28;20108;-77
2021/10/12 07:23:17;;;;;;;;;;;11.70;99.90;;;;;;5057327;28;20025;-78
2021/10/12 07:25:47;;;;;;;11.15;2.17;;;11.80;99.90;;;;;;5057237;28;19911;-78
2021/10/12 07:28:13;;;;;;;7.05;2.50;;;11.80;99.90;;;;;;5057398;28;20462;-77
2021/10/12 07:30:39;;;;;;;7.63;2.03;;;11.80;99.90;;;;;;5056886;28;20051;-78
2021/10/12 07:33:05;;;;;;;20.77;2.83;;;11.70;99.90;;;;;;5057322;28;20021;-78
2021/10/12 07:35:31;;;;;;;10.82;2.45;;;11.80;99.90;;;;;;5056010;28;20056;-78
2021/10/12 07:37:56;;;;;;;;;;;11.60;99.90;;;;;;5057693;28;20466;-77
2021/10/12 07:40:22;;;;;;;9.88;2.50;;;12.40;99.90;;;;;;5057689;28;19909;-78
2021/10/12 07:42:48;;;;;;;;;;;12.50;99.90;;;;;;5057379;28;20025;-78
2021/10/12 07:45:14;;;;;;;11.82;2.50;;;13.10;99.90;;;;;;5057463;28;19966;-77
2021/10/12 07:47:40;;;;;;;6.95;2.08;;;13.40;99.90;;;;;;5055576;28;20108;-78
2021/10/12 07:50:07;;;;;;;8.55;2.10;;;13.70;99.90;;;;;;5056836;28;20047;-78
2021/10/12 07:52:33;;;;;;;8.18;2.30;;;14.30;99.30;;;;;;5056803;28;20489;-78
2021/10/12 07:57:31;;;;;;;9.55;2.25;;;14.90;98.70;;;;;;5056744;28;20017;-78
2021/10/12 07:59:57;;;;;;;11.88;2.15;;;16.50;96.20;;;;;;5055833;28;20095;-78
2021/10/12 08:02:23;;;;;;;8.73;1.80;;;17.00;93.00;;;;;;5056571;28;20103;-78
2021/10/12 08:04:49;;;;;;;12.73;2.55;;;17.10;93.60;;;;;;5056944;28;20029;-79
2021/10/12 08:07:15;;;;;;;6.43;2.15;;;17.10;91.70;;;;;;5057072;28;20021;-79
2021/10/12 08:09:41;;;;;;;8.20;2.10;;;17.60;92.40;;;;;;5055635;28;20516;-78
2021/10/12 08:12:08;;;;;;;9.95;2.60;;;18.70;90.00;;;;;;5056358;28;20025;-79
2021/10/12 08:14:39;;;;;;;8.50;1.90;;;19.20;85.90;;;;;;5055603;28;20028;-79
2021/10/12 08:17:05;;;;;;;5.55;2.00;;;19.00;85.80;;;;;;5055048;28;20017;-79
2021/10/12 08:19:31;;;;;;;13.57;2.35;;;18.10;87.10;;;;;;5056256;28;20033;-78
2021/10/12 08:21:56;;;;;;;9.75;2.72;;;17.20;90.80;;;;;;5056089;28;20447;-78
2021/10/12 08:24:22;;;;;;;8.48;2.35;;;16.50;92.10;;;;;;5055135;28;20065;-78
2021/10/12 08:26:49;;;;;;;6.55;2.30;;;15.80;93.60;;;;;;5056505;28;20017;-78
2021/10/12 08:29:16;;;;;;;10.70;2.40;;;15.30;96.20;;;;;;5056459;28;20091;-78
2021/10/12 08:31:42;;;;;;;7.15;2.50;;;15.80;95.80;;;;;;5055777;28;20130;-78
2021/10/12 08:34:07;;;;;;;;;;;15.90;95.40;;;;;;5056615;28;20588;-79
2021/10/12 08:36:33;;;;;;;8.40;2.63;;;15.20;97.60;;;;;;5056321;28;19909;-78
2021/10/12 08:38:59;;;;;;;;;;;14.50;99.40;;;;;;5056696;28;20025;-77
2021/10/12 08:41:30;;;;;;;10.00;2.30;;;15.00;99.80;;;;;;5054227;28;19905;-78
2021/10/12 08:43:56;;;;;;;10.13;2.90;;;15.20;99.30;;;;;;5054396;28;20408;-78
2021/10/12 08:46:26;;;;;;;9.50;2.40;;;15.10;99.80;;;;;;5055935;28;20099;-78
2021/10/12 08:48:57;;;;;;;8.68;2.33;;;15.30;99.90;;;;;;5054310;28;20024;-78
2021/10/12 08:51:23;;;;;;;11.52;2.70;;;15.40;99.90;;;;;;5055797;28;20538;-78
2021/10/12 08:53:49;;;;;;;16.15;3.05;;;15.20;99.90;;;;;;5054564;28;20021;-78
2021/10/12 08:56:15;;;;;;;;;;;15.20;99.90;;;;;;5056394;28;20111;-77
2021/10/12 08:58:41;;;;;;;11.05;3.00;;;15.40;99.90;;;;;;5055915;28;19909;-78
2021/10/12 09:01:07;;;;;;;;;;;15.20;99.90;;;;;;5056294;28;20092;-78
2021/10/12 09:04:23;;;;;;;9.25;2.70;;;14.90;99.90;;;;;;5053981;28;19955;-78
2021/10/12 09:06:33;;;;;;;12.30;3.08;;;15.30;99.90;;;;;;5052455;28;20037;-79
2021/10/12 09:09:04;;;;;;;14.35;2.85;;;15.90;99.90;;;;;;5055698;28;20406;-79
2021/10/12 09:11:31;;;;;;;16.40;3.22;;;16.30;99.90;;;;;;5054819;28;20024;-78
2021/10/12 09:14:04;;;;;;;10.00;3.05;;;16.60;99.90;;;;;;5055473;28;20049;-79
2021/10/12 09:16:37;;;;;;;15.80;3.45;;;16.60;99.90;;;;;;5054202;28;20025;-79
2021/10/12 09:19:07;;;;;;;10.77;3.10;;;16.80;99.90;;;;;;5055296;28;20029;-78
2021/10/12 09:21:44;;;;;;;13.85;3.30;;;16.50;99.90;;;;;;5055374;28;20443;-78
2021/10/12 09:24:13;;;;;;;9.68;3.00;;;16.90;99.90;;;;;;5055572;28;20075;-79
2021/10/12 09:26:43;;;;;;;18.42;3.40;;;17.50;99.90;;;;;;5054240;28;20025;-79
2021/10/12 09:29:31;;;;;;;10.98;3.00;;;18.30;98.60;;;;;;5055618;28;20021;-79
2021/10/12 09:31:58;;;;;;;12.30;3.20;;;18.60;96.90;;;;;;5055005;28;20535;-79
2021/10/12 09:34:28;;;;;;;17.70;3.65;;;19.90;96.20;;;;;;5055246;28;20025;-79
2021/10/12 09:36:54;;;;;;;11.68;2.90;;;21.40;92.30;;;;;;5053727;28;20025;-80
2021/10/12 09:39:33;;;;;;;11.50;2.70;;;22.10;91.80;;;;;;5055127;28;20073;-79
2021/10/12 09:42:08;;;;;;;10.27;3.00;;;22.50;88.70;;;;;;5054753;28;20029;-80
2021/10/12 09:44:35;;;;;;;15.07;3.80;;;23.80;86.40;;;;;;5054282;28;20021;-80
2021/10/12 09:47:09;;;;;;;13.00;3.10;;;25.70;77.30;;;;;;5055050;28;20037;-80
2021/10/12 09:49:36;;;;;;;12.77;3.17;;;27.10;68.40;;;;;;5053787;28;20373;-81
2021/10/12 09:52:07;;;;;;;10.20;3.13;;;29.00;64.40;;;;;;5053119;28;20025;-81
2021/10/12 09:54:38;;;;;;;10.13;3.47;;;30.60;60.70;;;;;;5054486;28;20025;-81
2021/10/12 09:57:05;;;;;;;11.68;3.40;;;32.40;55.60;;;;;;5053839;28;20082;-81
2021/10/12 09:59:32;;;;;;;14.55;3.58;;;31.90;53.00;;;;;;5053620;28;20124;-81
2021/10/12 10:01:59;;;;;;;10.05;2.90;;;31.90;52.10;;;;;;5053417;28;20052;-80
2021/10/12 10:04:27;;;;;;;10.23;3.15;;;31.30;52.70;;;;;;5054415;28;20044;-81
2021/10/12 10:06:57;;;;;;;9.85;3.10;;;31.40;52.80;;;;;;5053234;28;20021;-81
2021/10/12 10:09:23;;;;;;;9.77;3.22;;;31.50;50.90;;;;;;5054052;28;20029;-81
2021/10/12 10:11:50;;;;;;;31.90;5.22;;;34.20;47.50;;;;;;5054234;28;20021;-81
2021/10/12 10:14:19;;;;;;;23.83;4.60;;;34.60;45.40;;;;;;5054576;28;20044;-81
2021/10/12 10:17:04;;;;;;;14.13;4.43;;;36.60;43.50;;;;;;5054564;28;20101;-81
2021/10/12 10:19:42;;;;;;;11.05;3.90;;;34.40;42.90;;;;;;5054128;28;20048;-81
2021/10/12 10:22:09;;;;;;;12.18;4.35;;;34.90;44.60;;;;;;5052622;28;20024;-81
2021/10/12 10:24:39;;;;;;;12.18;3.75;;;34.60;42.30;;;;;;5054000;28;20078;-81
2021/10/12 10:27:06;;;;;;;10.73;4.03;;;33.60;44.40;;;;;;5054139;28;20378;-81
2021/10/12 10:29:37;;;;;;;13.93;3.92;;;33.50;43.40;;;;;;5053945;28;20112;-81
2021/10/12 10:32:18;;;;;;;9.13;3.60;;;33.90;44.80;;;;;;5053545;28;20045;-81
2021/10/12 10:34:45;;;;;;;12.25;4.82;;;32.40;45.50;;;;;;5052234;28;20401;-81
2021/10/12 10:37:17;;;;;;;10.20;4.68;;;35.00;42.60;;;;;;5052559;28;20035;-82
2021/10/12 10:39:44;;;;;;;11.70;4.68;;;35.80;42.90;;;;;;5053468;28;20025;-82
2021/10/12 10:42:50;;;;;;;11.30;4.82;;;34.40;42.80;;;;;;5052623;28;20087;-81
2021/10/12 10:45:16;;;;;;;11.85;3.92;;;34.20;42.90;;;;;;5052001;28;20041;-81
2021/10/12 10:47:41;;;;;;;10.45;3.17;;;32.70;44.40;;;;;;5052517;28;20025;-81
2021/10/12 10:50:16;;;;;;;11.43;3.45;;;31.10;47.40;;;;;;5053539;28;20029;-81
2021/10/12 10:52:44;;;;;;;12.57;3.20;;;29.80;47.40;;;;;;5053576;28;20068;-81
2021/10/12 10:55:12;;;;;;;12.73;3.42;;;30.10;48.20;;;;;;5053394;28;20025;-81
2021/10/12 10:57:39;;;;;;;12.00;3.40;;;30.90;47.50;;;;;;5053841;28;20113;-81
2021/10/12 11:00:18;;;;;;;12.35;3.55;;;30.40;49.00;;;;;;5052145;28;20025;-81
2021/10/12 11:02:47;;;;;;;11.63;3.97;;;32.70;47.20;;;;;;5053166;28;20458;-82
2021/10/12 11:05:39;;;;;;;11.68;3.60;;;34.60;44.80;;;;;;5052625;28;20021;-81
2021/10/12 11:08:13;;;;;;;11.25;3.85;;;34.30;44.00;;;;;;5053738;28;20021;-81
2021/10/12 11:10:44;;;;;;;15.73;4.45;;;35.50;43.10;;;;;;5053134;28;20086;-81
2021/10/12 11:13:11;;;;;;;23.17;4.40;;;37.60;42.60;;;;;;5051744;28;20025;-81
2021/10/12 11:15:47;;;;;;;10.25;3.67;;;34.70;42.20;;;;;;5052096;28;20512;-81
2021/10/12 11:18:13;;;;;;;24.88;5.70;;;35.70;43.50;;;;;;5052415;28;20033;-81
2021/10/12 11:20:45;;;;;;;13.15;3.80;;;36.60;41.70;;;;;;5053450;28;20044;-81
2021/10/12 11:23:12;;;;;;;11.45;3.40;;;34.10;42.50;;;;;;5051493;28;20029;-80
2021/10/12 11:25:39;;;;;;;12.63;3.40;;;32.00;45.50;;;;;;5052504;28;20501;-80
2021/10/12 11:28:12;;;;;;;12.00;3.55;;;30.10;48.10;;;;;;5052398;28;20423;-80
2021/10/12 11:30:40;;;;;;;13.27;3.38;;;29.80;49.10;;;;;;5051301;28;20049;-80
2021/10/12 11:33:06;;;;;;;11.52;3.10;;;28.80;50.30;;;;;;5053030;28;20094;-80
2021/10/12 11:35:37;;;;;;;11.45;2.80;;;28.20;50.50;;;;;;5051721;28;20057;-80
2021/10/12 11:38:04;;;;;;;15.32;3.55;;;29.50;48.50;;;;;;5052088;28;20126;-80
2021/10/12 11:40:30;;;;;;;12.48;3.58;;;34.20;44.80;;;;;;5051682;28;20025;-81
2021/10/12 11:42:58;;;;;;;11.07;3.60;;;36.40;41.50;;;;;;5051409;28;20071;-80
2021/10/12 11:45:25;;;;;;;12.98;3.95;;;34.80;43.00;;;;;;5053099;28;20010;-81
2021/10/12 11:47:50;;;;;;;13.10;3.90;;;37.60;41.50;;;;;;5053117;28;20490;-80
2021/10/12 11:50:17;;;;;;;11.05;3.70;;;37.40;41.80;;;;;;5052092;28;20059;-81
2021/10/12 11:52:48;;;;;;;13.13;3.97;;;38.30;39.60;;;;;;5052626;28;20492;-81
2021/10/12 11:55:14;;;;;;;12.20;4.10;;;38.20;40.40;;;;;;5051548;28;20029;-81
2021/10/12 11:57:43;;;;;;;11.57;4.20;;;40.20;39.30;;;;;;5053061;28;20031;-81
2021/10/12 12:00:09;;;;;;;10.10;3.80;;;39.40;39.20;;;;;;5051414;28;20045;-82
2021/10/12 12:02:35;;;;;;;11.63;4.50;;;39.00;39.00;;;;;;5051552;28;20100;-82
2021/10/12 12:05:01;;;;;;;10.18;4.20;;;41.30;37.00;;;;;;5052970;28;20045;-81
2021/10/12 12:07:30;;;;;;;11.45;3.85;;;39.60;37.20;;;;;;5054902;28;20031;-81
2021/10/12 12:09:56;;;;;;;25.23;4.07;;;34.70;41.00;;;;;;5057056;28;20365;-80
2021/10/12 12:12:23;;;;;;;13.93;3.42;;;32.10;43.70;;;;;;5055134;28;20032;-80
2021/10/12 12:14:50;;;;;;;10.93;3.38;;;32.50;46.40;;;;;;5055630;28;20028;-81
2021/10/12 12:17:22;;;;;;;11.43;3.70;;;36.50;42.10;;;;;;5055022;28;20397;-81
2021/10/12 12:19:57;;;;;;;10.13;3.22;;;39.70;39.10;;;;;;5055166;28;20393;-81
2021/10/12 12:22:31;;;;;;;11.13;3.08;;;37.00;40.00;;;;;;5056297;28;20048;-80
2021/10/12 12:24:59;;;;;;;10.50;2.92;;;33.90;42.30;;;;;;5056154;28;20473;-80
2021/10/12 12:27:27;;;;;;;8.90;2.72;;;32.30;43.80;;;;;;5056317;28;20493;-80
2021/10/12 12:30:11;;;;;;;12.73;3.25;;;31.10;45.50;;;;;;5056435;28;20495;-80
2021/10/12 12:32:38;;;;;;;14.50;3.92;;;32.90;46.00;;;;;;5055751;28;20048;-81
2021/10/12 12:35:08;;;;;;;10.00;3.67;;;36.90;41.80;;;;;;5056490;28;20029;-81
2021/10/12 12:37:37;;;;;;;10.55;3.55;;;37.70;40.20;;;;;;5055722;28;20031;-81
2021/10/12 12:40:25;;;;;;;10.25;4.97;;;41.20;38.60;;;;;;5056437;28;20102;-82
2021/10/12 12:42:51;;;;;;;11.18;6.20;;;44.40;35.60;;;;;;5056217;28;20504;-82
2021/10/12 12:45:22;;;;;;;16.95;8.95;;;44.10;35.60;;;;;;5056005;28;20021;-81
2021/10/12 12:48:01;;;;;;;12.07;8.80;;;45.60;34.00;;;;;;5056535;28;20446;-83
2021/10/12 12:50:32;;;;;;;10.65;7.18;;;45.60;33.80;;;;;;5055996;28;20419;-82
2021/10/12 12:53:01;;;;;;;10.93;6.57;;;44.50;34.30;;;;;;5055958;28;20478;-82